sensor_id;sensor_type;location;lat;lon;timestamp;pressure;altitude;pressure_sealevel;temperature;humidity
12178;BME280;6152;48.728;9.256;2022-11-15T00:00:55;96889.59;;;7.32;100.00
12178;BME280;6152;48.728;9.256;2022-11-15T00:03:25;96891.19;;;7.35;100.00
12178;BME280;6152;48.728;9.256;2022-11-15T00:05:51;96884.09;;;7.38;100.00
12178;BME280;6152;48.728;9.256;2022-11-15T00:08:18;96894.28;;;7.41;100.00
12178;BME280;6152;48.728;9.256;2022-11-15T00:10:55;96881.22;;;7.44;100.00
12178;BME280;6152;48.728;9.256;2022-11-15T00:13:21;96876.63;;;7.49;100.00
12178;BME280;6152;48.728;9.256;2022-11-15T00:15:48;96888.50;;;7.53;100.00
12178;BME280;6152;48.728;9.256;2022-11-15T00:18:14;96893.50;;;7.56;100.00
12178;BME280;6152;48.728;9.256;2022-11-15T00:20:41;96890.19;;;7.54;100.00
12178;BME280;6152;48.728;9.256;2022-11-15T00:23:08;96891.09;;;7.53;100.00
12178;BME280;6152;48.728;9.256;2022-11-15T00:25:34;96887.75;;;7.51;100.00
12178;BME280;6152;48.728;9.256;2022-11-15T00:28:01;96876.47;;;7.52;100.00
12178;BME280;6152;48.728;9.256;2022-11-15T00:30:27;96876.63;;;7.49;100.00
12178;BME280;6152;48.728;9.256;2022-11-15T00:32:53;96878.47;;;7.47;100.00
12178;BME280;6152;48.728;9.256;2022-11-15T00:35:19;96872.50;;;7.45;100.00
12178;BME280;6152;48.728;9.256;2022-11-15T00:37:46;96871.78;;;7.43;100.00
12178;BME280;6152;48.728;9.256;2022-11-15T00:40:14;96868.56;;;7.38;100.00
12178;BME280;6152;48.728;9.256;2022-11-15T00:42:40;96870.56;;;7.33;100.00
12178;BME280;6152;48.728;9.256;2022-11-15T00:45:07;96865.72;;;7.27;100.00
12178;BME280;6152;48.728;9.256;2022-11-15T00:47:33;96869.38;;;7.23;100.00
12178;BME280;6152;48.728;9.256;2022-11-15T00:49:59;96861.00;;;7.18;100.00
12178;BME280;6152;48.728;9.256;2022-11-15T00:52:25;96861.31;;;7.12;100.00
12178;BME280;6152;48.728;9.256;2022-11-15T00:54:52;96853.88;;;7.06;100.00
12178;BME280;6152;48.728;9.256;2022-11-15T00:57:18;96854.16;;;7.00;100.00
12178;BME280;6152;48.728;9.256;2022-11-15T00:59:44;96859.75;;;6.92;100.00
12178;BME280;6152;48.728;9.256;2022-11-15T01:02:10;96854.78;;;6.88;100.00
12178;BME280;6152;48.728;9.256;2022-11-15T01:04:36;96855.84;;;6.84;100.00
12178;BME280;6152;48.728;9.256;2022-11-15T01:07:02;96839.06;;;6.75;100.00
12178;BME280;6152;48.728;9.256;2022-11-15T01:09:28;96841.56;;;6.77;100.00
12178;BME280;6152;48.728;9.256;2022-11-15T01:11:54;96842.63;;;6.73;100.00
12178;BME280;6152;48.728;9.256;2022-11-15T01:14:20;96844.63;;;6.68;100.00
12178;BME280;6152;48.728;9.256;2022-11-15T01:16:47;96843.09;;;6.64;100.00
12178;BME280;6152;48.728;9.256;2022-11-15T01:19:13;96839.88;;;6.58;100.00
12178;BME280;6152;48.728;9.256;2022-11-15T01:21:39;96838.38;;;6.54;100.00
12178;BME280;6152;48.728;9.256;2022-11-15T01:24:05;96829.16;;;6.49;100.00
12178;BME280;6152;48.728;9.256;2022-11-15T01:26:31;96837.97;;;6.45;100.00
12178;BME280;6152;48.728;9.256;2022-11-15T01:28:57;96828.03;;;6.37;100.00
12178;BME280;6152;48.728;9.256;2022-11-15T01:31:23;96827.34;;;6.34;100.00
12178;BME280;6152;48.728;9.256;2022-11-15T01:33:50;96823.97;;;6.32;100.00
12178;BME280;6152;48.728;9.256;2022-11-15T01:36:18;96841.38;;;6.28;100.00
12178;BME280;6152;48.728;9.256;2022-11-15T01:38:45;96830.34;;;6.25;100.00
12178;BME280;6152;48.728;9.256;2022-11-15T01:41:16;96829.66;;;6.21;100.00
12178;BME280;6152;48.728;9.256;2022-11-15T01:43:45;96829.81;;;6.18;100.00
12178;BME280;6152;48.728;9.256;2022-11-15T01:46:24;96830.94;;;6.13;100.00
12178;BME280;6152;48.728;9.256;2022-11-15T01:48:53;96828.56;;;6.08;100.00
12178;BME280;6152;48.728;9.256;2022-11-15T01:51:23;96834.78;;;6.04;100.00
12178;BME280;6152;48.728;9.256;2022-11-15T01:53:55;96822.66;;;6.06;100.00
12178;BME280;6152;48.728;9.256;2022-11-15T01:56:27;96825.38;;;6.03;100.00
12178;BME280;6152;48.728;9.256;2022-11-15T01:58:56;96821.31;;;5.97;100.00
12178;BME280;6152;48.728;9.256;2022-11-15T02:01:25;96806.97;;;5.92;100.00
12178;BME280;6152;48.728;9.256;2022-11-15T02:03:55;96815.75;;;5.88;100.00
12178;BME280;6152;48.728;9.256;2022-11-15T02:06:22;96815.94;;;5.83;100.00
12178;BME280;6152;48.728;9.256;2022-11-15T02:08:50;96814.34;;;5.81;100.00
12178;BME280;6152;48.728;9.256;2022-11-15T02:11:16;96809.31;;;5.78;100.00
12178;BME280;6152;48.728;9.256;2022-11-15T02:13:43;96805.16;;;5.75;100.00
12178;BME280;6152;48.728;9.256;2022-11-15T02:18:57;96809.63;;;5.72;100.00
12178;BME280;6152;48.728;9.256;2022-11-15T02:21:32;96806.25;;;5.70;100.00
12178;BME280;6152;48.728;9.256;2022-11-15T02:29:57;96790.06;;;5.66;100.00
12178;BME280;6152;48.728;9.256;2022-11-15T02:32:54;96789.22;;;5.66;100.00
12178;BME280;6152;48.728;9.256;2022-11-15T02:38:12;96787.63;;;5.63;100.00
12178;BME280;6152;48.728;9.256;2022-11-15T02:40:57;96781.72;;;5.61;100.00
12178;BME280;6152;48.728;9.256;2022-11-15T02:43:53;96780.88;;;5.60;100.00
12178;BME280;6152;48.728;9.256;2022-11-15T02:46:33;96779.03;;;5.63;100.00
12178;BME280;6152;48.728;9.256;2022-11-15T02:49:19;96776.41;;;5.64;100.00
12178;BME280;6152;48.728;9.256;2022-11-15T02:51:47;96771.16;;;5.66;100.00
12178;BME280;6152;48.728;9.256;2022-11-15T02:54:20;96765.94;;;5.67;100.00
12178;BME280;6152;48.728;9.256;2022-11-15T02:56:48;96769.25;;;5.69;100.00
12178;BME280;6152;48.728;9.256;2022-11-15T03:08:32;96752.38;;;5.81;100.00
12178;BME280;6152;48.728;9.256;2022-11-15T03:11:16;96753.13;;;5.83;100.00
12178;BME280;6152;48.728;9.256;2022-11-15T03:13:58;96750.53;;;5.83;100.00
12178;BME280;6152;48.728;9.256;2022-11-15T03:16:41;96750.47;;;5.86;100.00
12178;BME280;6152;48.728;9.256;2022-11-15T03:19:26;96752.09;;;5.87;100.00
12178;BME280;6152;48.728;9.256;2022-11-15T03:21:55;96746.88;;;5.88;100.00
12178;BME280;6152;48.728;9.256;2022-11-15T03:24:25;96742.63;;;5.87;100.00
12178;BME280;6152;48.728;9.256;2022-11-15T03:26:54;96746.94;;;5.87;100.00
12178;BME280;6152;48.728;9.256;2022-11-15T03:29:25;96737.56;;;5.84;100.00
12178;BME280;6152;48.728;9.256;2022-11-15T03:32:07;96737.63;;;5.83;100.00
12178;BME280;6152;48.728;9.256;2022-11-15T03:34:47;96732.56;;;5.81;100.00
12178;BME280;6152;48.728;9.256;2022-11-15T03:37:17;96730.03;;;5.80;100.00
12178;BME280;6152;48.728;9.256;2022-11-15T03:39:46;96733.47;;;5.80;100.00
12178;BME280;6152;48.728;9.256;2022-11-15T03:45:13;96729.88;;;5.83;100.00
12178;BME280;6152;48.728;9.256;2022-11-15T03:47:48;96718.59;;;5.85;100.00
12178;BME280;6152;48.728;9.256;2022-11-15T03:50:21;96721.97;;;5.87;100.00
12178;BME280;6152;48.728;9.256;2022-11-15T03:52:49;96721.13;;;5.87;100.00
12178;BME280;6152;48.728;9.256;2022-11-15T03:55:20;96721.13;;;5.87;100.00
12178;BME280;6152;48.728;9.256;2022-11-15T03:57:49;96718.53;;;5.87;100.00
12178;BME280;6152;48.728;9.256;2022-11-15T04:00:16;96722.84;;;5.86;100.00
12178;BME280;6152;48.728;9.256;2022-11-15T04:02:43;96724.47;;;5.89;100.00
12178;BME280;6152;48.728;9.256;2022-11-15T04:05:09;96716.75;;;5.89;100.00
12178;BME280;6152;48.728;9.256;2022-11-15T04:07:35;96720.16;;;5.89;100.00
12178;BME280;6152;48.728;9.256;2022-11-15T04:10:01;96716.75;;;5.89;100.00
12178;BME280;6152;48.728;9.256;2022-11-15T04:12:28;96710.72;;;5.88;100.00
12178;BME280;6152;48.728;9.256;2022-11-15T04:15:02;96718.53;;;5.87;100.00
12178;BME280;6152;48.728;9.256;2022-11-15T04:20:20;96715.38;;;5.80;100.00
12178;BME280;6152;48.728;9.256;2022-11-15T04:23:09;96713.03;;;5.76;100.00
12178;BME280;6152;48.728;9.256;2022-11-15T04:25:56;96706.19;;;5.75;100.00
12178;BME280;6152;48.728;9.256;2022-11-15T04:28:22;96707.19;;;5.72;100.00
12178;BME280;6152;48.728;9.256;2022-11-15T04:30:49;96713.31;;;5.70;100.00
12178;BME280;6152;48.728;9.256;2022-11-15T04:33:15;96711.78;;;5.66;100.00
12178;BME280;6152;48.728;9.256;2022-11-15T04:35:42;96708.44;;;5.64;100.00
12178;BME280;6152;48.728;9.256;2022-11-15T04:38:10;96710.28;;;5.62;100.00
12178;BME280;6152;48.728;9.256;2022-11-15T04:40:37;96700.91;;;5.59;100.00
12178;BME280;6152;48.728;9.256;2022-11-15T04:43:03;96701.91;;;5.56;100.00
12178;BME280;6152;48.728;9.256;2022-11-15T04:45:30;96689.22;;;5.52;100.00
12178;BME280;6152;48.728;9.256;2022-11-15T04:47:56;96692.88;;;5.48;100.00
12178;BME280;6152;48.728;9.256;2022-11-15T04:50:22;96691.25;;;5.45;100.00
12178;BME280;6152;48.728;9.256;2022-11-15T04:52:53;96693.97;;;5.42;100.00
12178;BME280;6152;48.728;9.256;2022-11-15T04:55:20;96694.06;;;5.41;100.00
12178;BME280;6152;48.728;9.256;2022-11-15T04:57:46;96688.13;;;5.39;100.00
12178;BME280;6152;48.728;9.256;2022-11-15T05:00:15;96688.97;;;5.39;100.00
12178;BME280;6152;48.728;9.256;2022-11-15T05:02:41;96681.22;;;5.39;100.00
12178;BME280;6152;48.728;9.256;2022-11-15T05:05:26;96683.81;;;5.39;100.00
12178;BME280;6152;48.728;9.256;2022-11-15T05:07:53;96676.81;;;5.41;100.00
12178;BME280;6152;48.728;9.256;2022-11-15T05:10:19;96673.50;;;5.39;100.00
12178;BME280;6152;48.728;9.256;2022-11-15T05:12:46;96686.44;;;5.38;100.00
12178;BME280;6152;48.728;9.256;2022-11-15T05:15:12;96681.38;;;5.36;100.00
12178;BME280;6152;48.728;9.256;2022-11-15T05:17:38;96671.94;;;5.35;100.00
12178;BME280;6152;48.728;9.256;2022-11-15T05:20:05;96675.16;;;5.40;100.00
12178;BME280;6152;48.728;9.256;2022-11-15T05:22:31;96673.19;;;5.45;100.00
12178;BME280;6152;48.728;9.256;2022-11-15T05:24:57;96681.03;;;5.44;100.00
12178;BME280;6152;48.728;9.256;2022-11-15T05:27:23;96675.16;;;5.40;100.00
12178;BME280;6152;48.728;9.256;2022-11-15T05:29:49;96678.66;;;5.39;100.00
12178;BME280;6152;48.728;9.256;2022-11-15T05:32:17;96671.91;;;5.37;100.00
12178;BME280;6152;48.728;9.256;2022-11-15T05:34:43;96681.28;;;5.38;100.00
12178;BME280;6152;48.728;9.256;2022-11-15T05:37:10;96681.44;;;5.35;100.00
12178;BME280;6152;48.728;9.256;2022-11-15T05:39:36;96671.13;;;5.35;100.00
12178;BME280;6152;48.728;9.256;2022-11-15T05:42:11;96668.47;;;5.36;100.00
12178;BME280;6152;48.728;9.256;2022-11-15T05:44:41;96673.63;;;5.36;100.00
12178;BME280;6152;48.728;9.256;2022-11-15T05:47:11;96664.22;;;5.35;100.00
12178;BME280;6152;48.728;9.256;2022-11-15T05:49:40;96667.56;;;5.37;100.00
12178;BME280;6152;48.728;9.256;2022-11-15T05:52:11;96661.63;;;5.35;100.00
12178;BME280;6152;48.728;9.256;2022-11-15T05:54:41;96660.78;;;5.35;100.00
12178;BME280;6152;48.728;9.256;2022-11-15T05:57:07;96655.44;;;5.39;100.00
12178;BME280;6152;48.728;9.256;2022-11-15T05:59:34;96663.84;;;5.43;100.00
12178;BME280;6152;48.728;9.256;2022-11-15T06:02:01;96663.84;;;5.43;100.00
12178;BME280;6152;48.728;9.256;2022-11-15T06:04:27;96663.00;;;5.42;100.00
12178;BME280;6152;48.728;9.256;2022-11-15T06:06:53;96666.38;;;5.44;100.00
12178;BME280;6152;48.728;9.256;2022-11-15T06:09:19;96665.53;;;5.44;100.00
12178;BME280;6152;48.728;9.256;2022-11-15T06:11:45;96666.38;;;5.44;100.00
12178;BME280;6152;48.728;9.256;2022-11-15T06:14:11;96664.00;;;5.40;100.00
12178;BME280;6152;48.728;9.256;2022-11-15T06:16:37;96663.16;;;5.39;100.00
12178;BME280;6152;48.728;9.256;2022-11-15T06:19:05;96664.84;;;5.40;100.00
12178;BME280;6152;48.728;9.256;2022-11-15T06:21:31;96669.31;;;5.37;100.00
12178;BME280;6152;48.728;9.256;2022-11-15T06:23:57;96665.16;;;5.34;100.00
12178;BME280;6152;48.728;9.256;2022-11-15T06:26:23;96667.72;;;5.34;100.00
12178;BME280;6152;48.728;9.256;2022-11-15T06:28:49;96667.78;;;5.33;100.00
12178;BME280;6152;48.728;9.256;2022-11-15T06:31:16;96670.16;;;5.37;100.00
12178;BME280;6152;48.728;9.256;2022-11-15T06:33:42;96672.59;;;5.40;100.00
12178;BME280;6152;48.728;9.256;2022-11-15T06:36:11;96671.81;;;5.38;100.00
12178;BME280;6152;48.728;9.256;2022-11-15T06:38:39;96680.47;;;5.37;100.00
12178;BME280;6152;48.728;9.256;2022-11-15T06:41:07;96673.78;;;5.33;100.00
12178;BME280;6152;48.728;9.256;2022-11-15T06:43:34;96678.16;;;5.31;100.00
12178;BME280;6152;48.728;9.256;2022-11-15T06:46:02;96676.50;;;5.30;100.00
12178;BME280;6152;48.728;9.256;2022-11-15T06:48:29;96678.25;;;5.30;100.00
12178;BME280;6152;48.728;9.256;2022-11-15T06:50:57;96673.94;;;5.30;100.00
12178;BME280;6152;48.728;9.256;2022-11-15T06:53:24;96672.78;;;5.36;100.00
12178;BME280;6152;48.728;9.256;2022-11-15T06:55:51;96670.84;;;5.41;100.00
12178;BME280;6152;48.728;9.256;2022-11-15T06:58:18;96679.28;;;5.44;100.00
12178;BME280;6152;48.728;9.256;2022-11-15T07:00:44;96686.56;;;5.53;100.00
12178;BME280;6152;48.728;9.256;2022-11-15T07:03:10;96681.94;;;5.60;100.00
12178;BME280;6152;48.728;9.256;2022-11-15T07:05:37;96677.28;;;5.68;100.00
12178;BME280;6152;48.728;9.256;2022-11-15T07:08:03;96674.31;;;5.76;100.00
12178;BME280;6152;48.728;9.256;2022-11-15T07:10:30;96682.50;;;5.84;100.00
12178;BME280;6152;48.728;9.256;2022-11-15T07:12:56;96681.19;;;5.94;100.00
12178;BME280;6152;48.728;9.256;2022-11-15T07:15:25;96679.06;;;6.02;100.00
12178;BME280;6152;48.728;9.256;2022-11-15T07:17:52;96681.34;;;6.08;100.00
12178;BME280;6152;48.728;9.256;2022-11-15T07:20:18;96687.72;;;6.18;100.00
12178;BME280;6152;48.728;9.256;2022-11-15T07:22:45;96688.91;;;6.28;100.00
12178;BME280;6152;48.728;9.256;2022-11-15T07:25:11;96680.56;;;6.40;100.00
12178;BME280;6152;48.728;9.256;2022-11-15T07:27:38;96685.25;;;6.49;100.00
12178;BME280;6152;48.728;9.256;2022-11-15T07:30:05;96681.88;;;6.65;100.00
12178;BME280;6152;48.728;9.256;2022-11-15T07:32:31;96675.16;;;6.78;100.00
12178;BME280;6152;48.728;9.256;2022-11-15T07:34:57;96677.19;;;6.88;100.00
12178;BME280;6152;48.728;9.256;2022-11-15T07:37:23;96679.19;;;6.99;100.00
12178;BME280;6152;48.728;9.256;2022-11-15T07:39:49;96676.53;;;7.16;100.00
12178;BME280;6152;48.728;9.256;2022-11-15T07:42:16;96678.69;;;7.39;100.00
12178;BME280;6152;48.728;9.256;2022-11-15T07:45:00;96672.75;;;7.69;100.00
12178;BME280;6152;48.728;9.256;2022-11-15T07:47:28;96680.44;;;8.00;100.00
12178;BME280;6152;48.728;9.256;2022-11-15T07:49:55;96672.84;;;8.27;100.00
12178;BME280;6152;48.728;9.256;2022-11-15T07:52:21;96673.00;;;8.53;100.00
12178;BME280;6152;48.728;9.256;2022-11-15T07:54:47;96664.47;;;8.80;100.00
12178;BME280;6152;48.728;9.256;2022-11-15T07:57:13;96669.38;;;9.12;100.00
12178;BME280;6152;48.728;9.256;2022-11-15T07:59:39;96654.56;;;9.41;100.00
12178;BME280;6152;48.728;9.256;2022-11-15T08:02:05;96662.25;;;9.70;100.00
12178;BME280;6152;48.728;9.256;2022-11-15T08:04:31;96658.47;;;9.88;100.00
12178;BME280;6152;48.728;9.256;2022-11-15T08:06:58;96653.06;;;9.91;100.00
12178;BME280;6152;48.728;9.256;2022-11-15T08:09:24;96654.56;;;9.95;100.00
12178;BME280;6152;48.728;9.256;2022-11-15T08:11:50;96656.09;;;9.97;100.00
12178;BME280;6152;48.728;9.256;2022-11-15T08:14:17;96657.03;;;9.96;100.00
12178;BME280;6152;48.728;9.256;2022-11-15T08:16:43;96648.94;;;10.01;100.00
12178;BME280;6152;48.728;9.256;2022-11-15T08:19:09;96645.13;;;10.06;100.00
12178;BME280;6152;48.728;9.256;2022-11-15T08:21:35;96654.34;;;10.10;100.00
12178;BME280;6152;48.728;9.256;2022-11-15T08:24:01;96647.56;;;10.22;100.00
12178;BME280;6152;48.728;9.256;2022-11-15T08:26:28;96640.28;;;10.27;100.00
12178;BME280;6152;48.728;9.256;2022-11-15T08:28:55;96642.59;;;10.44;100.00
12178;BME280;6152;48.728;9.256;2022-11-15T08:31:22;96641.03;;;10.54;100.00
12178;BME280;6152;48.728;9.256;2022-11-15T08:33:48;96641.44;;;10.61;100.00
12178;BME280;6152;48.728;9.256;2022-11-15T08:36:16;96638.22;;;10.57;100.00
12178;BME280;6152;48.728;9.256;2022-11-15T08:38:42;96638.44;;;10.54;100.00
12178;BME280;6152;48.728;9.256;2022-11-15T08:41:18;96626.97;;;10.70;100.00
12178;BME280;6152;48.728;9.256;2022-11-15T08:43:45;96638.63;;;10.89;100.00
12178;BME280;6152;48.728;9.256;2022-11-15T08:46:13;96626.50;;;11.01;100.00
12178;BME280;6152;48.728;9.256;2022-11-15T08:48:39;96626.06;;;11.07;100.00
12178;BME280;6152;48.728;9.256;2022-11-15T08:51:05;96619.69;;;11.11;100.00
12178;BME280;6152;48.728;9.256;2022-11-15T08:53:32;96616.19;;;11.36;100.00
12178;BME280;6152;48.728;9.256;2022-11-15T08:55:58;96617.97;;;11.72;100.00
12178;BME280;6152;48.728;9.256;2022-11-15T08:58:24;96616.53;;;12.13;100.00
12178;BME280;6152;48.728;9.256;2022-11-15T09:00:50;96621.72;;;12.37;100.00
12178;BME280;6152;48.728;9.256;2022-11-15T09:03:16;96613.19;;;12.80;100.00
12178;BME280;6152;48.728;9.256;2022-11-15T09:05:42;96607.00;;;13.36;100.00
12178;BME280;6152;48.728;9.256;2022-11-15T09:08:08;96610.22;;;14.24;100.00
12178;BME280;6152;48.728;9.256;2022-11-15T09:10:35;96607.19;;;15.31;100.00
12178;BME280;6152;48.728;9.256;2022-11-15T09:13:01;96607.25;;;15.69;88.58
12178;BME280;6152;48.728;9.256;2022-11-15T09:15:27;96598.28;;;16.95;86.40
12178;BME280;6152;48.728;9.256;2022-11-15T09:17:53;96597.41;;;17.58;75.42
12178;BME280;6152;48.728;9.256;2022-11-15T09:20:19;96601.00;;;18.28;72.31
12178;BME280;6152;48.728;9.256;2022-11-15T09:22:45;96599.09;;;18.38;70.29
12178;BME280;6152;48.728;9.256;2022-11-15T09:25:11;96601.63;;;17.87;70.66
12178;BME280;6152;48.728;9.256;2022-11-15T09:27:37;96586.56;;;17.16;69.25
12178;BME280;6152;48.728;9.256;2022-11-15T09:30:04;96598.84;;;16.89;72.70
12178;BME280;6152;48.728;9.256;2022-11-15T09:32:30;96586.09;;;17.21;74.45
12178;BME280;6152;48.728;9.256;2022-11-15T09:34:57;96579.72;;;17.51;63.11
12178;BME280;6152;48.728;9.256;2022-11-15T09:37:23;96581.50;;;18.90;63.73
12178;BME280;6152;48.728;9.256;2022-11-15T09:39:49;96584.34;;;20.21;55.88
12178;BME280;6152;48.728;9.256;2022-11-15T09:49:58;96566.28;;;22.73;46.31
12178;BME280;6152;48.728;9.256;2022-11-15T09:52:25;96556.78;;;23.73;43.90
12178;BME280;6152;48.728;9.256;2022-11-15T09:54:52;96552.56;;;24.70;41.51
12178;BME280;6152;48.728;9.256;2022-11-15T09:57:42;96549.00;;;24.84;38.04
12178;BME280;6152;48.728;9.256;2022-11-15T10:00:18;96545.75;;;24.60;39.04
12178;BME280;6152;48.728;9.256;2022-11-15T10:03:02;96547.97;;;24.29;40.30
12178;BME280;6152;48.728;9.256;2022-11-15T10:05:44;96545.69;;;24.26;38.31
12178;BME280;6152;48.728;9.256;2022-11-15T10:08:25;96536.53;;;23.50;40.26
12178;BME280;6152;48.728;9.256;2022-11-15T10:10:57;96538.31;;;21.64;42.77
12178;BME280;6152;48.728;9.256;2022-11-15T10:13:25;96534.66;;;20.16;47.20
12178;BME280;6152;48.728;9.256;2022-11-15T10:15:54;96533.94;;;19.08;51.25
12178;BME280;6152;48.728;9.256;2022-11-15T10:18:29;96527.38;;;18.44;55.37
12178;BME280;6152;48.728;9.256;2022-11-15T10:21:11;96526.81;;;18.15;56.65
12178;BME280;6152;48.728;9.256;2022-11-15T10:23:40;96526.03;;;18.40;58.15
12178;BME280;6152;48.728;9.256;2022-11-15T10:26:11;96521.44;;;17.99;60.86
12178;BME280;6152;48.728;9.256;2022-11-15T10:28:39;96514.44;;;17.90;61.74
12178;BME280;6152;48.728;9.256;2022-11-15T10:31:25;96524.25;;;17.80;59.83
12178;BME280;6152;48.728;9.256;2022-11-15T10:33:56;96511.06;;;17.27;59.69
12178;BME280;6152;48.728;9.256;2022-11-15T10:36:25;96506.44;;;17.11;62.30
12178;BME280;6152;48.728;9.256;2022-11-15T10:38:54;96499.22;;;16.58;66.06
12178;BME280;6152;48.728;9.256;2022-11-15T10:41:29;96500.50;;;15.79;72.69
12178;BME280;6152;48.728;9.256;2022-11-15T10:49:25;96499.03;;;14.18;90.80
12178;BME280;6152;48.728;9.256;2022-11-15T10:54:46;96491.56;;;14.14;93.80
12178;BME280;6152;48.728;9.256;2022-11-15T10:57:23;96496.03;;;14.23;95.19
12178;BME280;6152;48.728;9.256;2022-11-15T11:00:26;96487.38;;;14.32;98.26
12178;BME280;6152;48.728;9.256;2022-11-15T11:05:41;96489.22;;;14.11;98.97
12178;BME280;6152;48.728;9.256;2022-11-15T11:10:37;96483.69;;;13.84;100.00
12178;BME280;6152;48.728;9.256;2022-11-15T11:13:23;96478.44;;;13.63;100.00
12178;BME280;6152;48.728;9.256;2022-11-15T11:18:36;96479.88;;;13.35;100.00
12178;BME280;6152;48.728;9.256;2022-11-15T11:21:10;96482.53;;;13.24;100.00
12178;BME280;6152;48.728;9.256;2022-11-15T11:32:02;96464.13;;;13.57;100.00
12178;BME280;6152;48.728;9.256;2022-11-15T11:37:21;96467.03;;;13.85;100.00
12178;BME280;6152;48.728;9.256;2022-11-15T11:42:39;96466.00;;;13.35;100.00
12178;BME280;6152;48.728;9.256;2022-11-15T11:45:26;96455.84;;;13.21;100.00
12178;BME280;6152;48.728;9.256;2022-11-15T11:48:18;96441.97;;;13.20;100.00
12178;BME280;6152;48.728;9.256;2022-11-15T11:50:47;96447.38;;;13.28;100.00
12178;BME280;6152;48.728;9.256;2022-11-15T11:56:31;96430.38;;;13.54;100.00
12178;BME280;6152;48.728;9.256;2022-11-15T11:59:21;96435.28;;;13.69;100.00
12178;BME280;6152;48.728;9.256;2022-11-15T12:01:49;96435.66;;;13.64;100.00
12178;BME280;6152;48.728;9.256;2022-11-15T12:04:21;96427.53;;;13.88;100.00
12178;BME280;6152;48.728;9.256;2022-11-15T12:07:03;96429.03;;;14.41;100.00
12178;BME280;6152;48.728;9.256;2022-11-15T12:09:44;96422.00;;;14.42;100.00
12178;BME280;6152;48.728;9.256;2022-11-15T12:17:36;96406.50;;;14.69;100.00
12178;BME280;6152;48.728;9.256;2022-11-15T12:20:19;96409.38;;;14.66;100.00
12178;BME280;6152;48.728;9.256;2022-11-15T12:23:06;96404.88;;;14.68;100.00
12178;BME280;6152;48.728;9.256;2022-11-15T12:26:04;96400.56;;;14.57;100.00
12178;BME280;6152;48.728;9.256;2022-11-15T12:28:54;96403.41;;;14.45;100.00
12178;BME280;6152;48.728;9.256;2022-11-15T12:31:35;96402.84;;;14.41;100.00
12178;BME280;6152;48.728;9.256;2022-11-15T12:34:15;96404.34;;;14.34;100.00
12178;BME280;6152;48.728;9.256;2022-11-15T12:36:51;96405.28;;;14.33;100.00
12178;BME280;6152;48.728;9.256;2022-11-15T12:39:18;96398.66;;;14.29;100.00
12178;BME280;6152;48.728;9.256;2022-11-15T12:59:56;96387.69;;;13.75;100.00
12178;BME280;6152;48.728;9.256;2022-11-15T13:02:41;96383.88;;;13.79;100.00
12178;BME280;6152;48.728;9.256;2022-11-15T13:15:35;96362.78;;;13.71;100.00
12178;BME280;6152;48.728;9.256;2022-11-15T13:18:38;96368.06;;;13.59;100.00
12178;BME280;6152;48.728;9.256;2022-11-15T13:21:22;96360.88;;;13.52;100.00
12178;BME280;6152;48.728;9.256;2022-11-15T13:24:17;96352.47;;;13.28;100.00
12178;BME280;6152;48.728;9.256;2022-11-15T13:26:43;96347.66;;;13.23;100.00
12178;BME280;6152;48.728;9.256;2022-11-15T13:29:17;96348.66;;;13.32;100.00
12178;BME280;6152;48.728;9.256;2022-11-15T13:31:44;96349.94;;;13.37;100.00
12178;BME280;6152;48.728;9.256;2022-11-15T13:34:23;96348.13;;;13.38;100.00
12178;BME280;6152;48.728;9.256;2022-11-15T13:36:50;96344.63;;;13.48;100.00
12178;BME280;6152;48.728;9.256;2022-11-15T13:39:30;96339.16;;;13.51;100.00
12178;BME280;6152;48.728;9.256;2022-11-15T13:41:57;96335.72;;;13.51;100.00
12178;BME280;6152;48.728;9.256;2022-11-15T13:44:26;96324.50;;;13.39;100.00
12178;BME280;6152;48.728;9.256;2022-11-15T13:47:12;96320.69;;;13.23;100.00
12178;BME280;6152;48.728;9.256;2022-11-15T13:49:39;96322.16;;;13.15;100.00
12178;BME280;6152;48.728;9.256;2022-11-15T13:52:09;96311.81;;;13.14;100.00
12178;BME280;6152;48.728;9.256;2022-11-15T13:59:33;96307.28;;;12.95;100.00
12178;BME280;6152;48.728;9.256;2022-11-15T14:02:14;96304.25;;;12.79;100.00
12178;BME280;6152;48.728;9.256;2022-11-15T14:04:59;96302.72;;;12.77;100.00
12178;BME280;6152;48.728;9.256;2022-11-15T14:07:28;96300.13;;;12.77;100.00
12178;BME280;6152;48.728;9.256;2022-11-15T14:09:54;96299.94;;;12.69;100.00
12178;BME280;6152;48.728;9.256;2022-11-15T14:12:39;96300.00;;;12.57;100.00
12178;BME280;6152;48.728;9.256;2022-11-15T14:15:33;96293.34;;;12.53;100.00
12178;BME280;6152;48.728;9.256;2022-11-15T14:18:00;96287.66;;;12.48;100.00
12178;BME280;6152;48.728;9.256;2022-11-15T14:20:27;96276.91;;;12.42;100.00
12178;BME280;6152;48.728;9.256;2022-11-15T14:23:01;96276.56;;;12.35;100.00
12178;BME280;6152;48.728;9.256;2022-11-15T14:25:32;96265.69;;;12.30;100.00
12178;BME280;6152;48.728;9.256;2022-11-15T14:28:28;96260.72;;;12.27;100.00
12178;BME280;6152;48.728;9.256;2022-11-15T14:30:57;96267.00;;;12.25;100.00
12178;BME280;6152;48.728;9.256;2022-11-15T14:33:35;96262.03;;;12.22;100.00
12178;BME280;6152;48.728;9.256;2022-11-15T14:36:14;96260.03;;;12.14;100.00
12178;BME280;6152;48.728;9.256;2022-11-15T14:38:41;96249.84;;;12.11;100.00
12178;BME280;6152;48.728;9.256;2022-11-15T14:41:25;96252.34;;;12.12;100.00
12178;BME280;6152;48.728;9.256;2022-11-15T14:43:53;96258.41;;;12.13;100.00
12178;BME280;6152;48.728;9.256;2022-11-15T14:46:19;96253.44;;;12.10;100.00
12178;BME280;6152;48.728;9.256;2022-11-15T14:48:46;96250.09;;;12.08;100.00
12178;BME280;6152;48.728;9.256;2022-11-15T14:51:18;96242.53;;;12.05;100.00
12178;BME280;6152;48.728;9.256;2022-11-15T14:53:45;96242.66;;;12.03;100.00
12178;BME280;6152;48.728;9.256;2022-11-15T14:56:12;96247.06;;;12.03;100.00
12178;BME280;6152;48.728;9.256;2022-11-15T14:58:38;96243.47;;;12.04;100.00
12178;BME280;6152;48.728;9.256;2022-11-15T15:01:24;96229.75;;;12.02;100.00
12178;BME280;6152;48.728;9.256;2022-11-15T15:03:50;96230.50;;;11.93;100.00
12178;BME280;6152;48.728;9.256;2022-11-15T15:06:18;96226.34;;;11.90;100.00
12178;BME280;6152;48.728;9.256;2022-11-15T15:08:45;96230.72;;;11.90;100.00
12178;BME280;6152;48.728;9.256;2022-11-15T15:11:16;96228.81;;;11.92;100.00